createdAt,value
2018-05-10T00:02:16.120Z,17.20
2018-05-10T00:04:42.225Z,12.93
2018-05-10T00:07:08.314Z,11.63
2018-05-10T00:09:35.116Z,14.13
2018-05-10T00:12:01.204Z,14.97
2018-05-10T00:14:27.278Z,23.07
2018-05-10T00:16:53.362Z,14.73
2018-05-10T00:19:19.429Z,16.27
2018-05-10T00:21:45.506Z,13.50
2018-05-10T00:24:11.583Z,15.57
2018-05-10T00:26:38.417Z,13.60
2018-05-10T00:29:04.497Z,14.17
2018-05-10T00:31:30.578Z,13.93
2018-05-10T00:33:56.655Z,15.27
2018-05-10T00:36:23.378Z,15.27
2018-05-10T00:38:49.454Z,13.90
2018-05-10T00:41:15.555Z,15.43
2018-05-10T00:43:41.630Z,13.57
2018-05-10T00:46:08.454Z,14.73
2018-05-10T00:48:34.552Z,13.67
2018-05-10T00:51:00.626Z,15.33
2018-05-10T00:53:27.454Z,14.03
2018-05-10T00:55:53.522Z,18.87
2018-05-10T00:58:19.597Z,14.90
2018-05-10T01:00:45.657Z,15.57
2018-05-10T01:03:11.733Z,17.50
2018-05-10T01:05:37.798Z,14.93
2018-05-10T01:08:04.609Z,14.97
2018-05-10T01:10:30.687Z,13.27
2018-05-10T01:12:56.764Z,12.97
2018-05-10T01:15:22.849Z,18.10
2018-05-10T01:17:48.947Z,15.97
2018-05-10T01:20:15.765Z,17.30
2018-05-10T01:22:41.835Z,10.83
2018-05-10T01:25:07.906Z,11.53
2018-05-10T01:27:33.982Z,15.20
2018-05-10T01:30:00.070Z,15.53
2018-05-10T01:32:26.882Z,13.93
2018-05-10T01:35:12.413Z,14.20
2018-05-10T01:37:39.216Z,14.13
2018-05-10T01:40:05.301Z,17.67
2018-05-10T01:42:31.378Z,19.07
2018-05-10T01:44:57.458Z,12.03
2018-05-10T01:47:23.525Z,17.43
2018-05-10T01:49:49.621Z,14.83
2018-05-10T01:52:15.706Z,14.77
2018-05-10T01:54:41.821Z,12.27
2018-05-10T01:57:08.647Z,11.67
2018-05-10T01:59:34.719Z,13.07
2018-05-10T02:02:00.801Z,14.90
2018-05-10T02:04:26.866Z,15.90
2018-05-10T02:06:52.941Z,14.20
2018-05-10T02:09:19.013Z,17.10
2018-05-10T02:11:45.085Z,18.40
2018-05-10T02:14:11.166Z,12.37
2018-05-10T02:16:37.241Z,17.40
2018-05-10T02:19:03.318Z,9.90
2018-05-10T02:21:29.389Z,12.77
2018-05-10T02:23:55.456Z,13.57
2018-05-10T02:26:21.527Z,14.27
2018-05-10T02:37:52.983Z,14.87
2018-05-10T02:40:19.800Z,13.37
2018-05-10T02:42:45.879Z,14.03
2018-05-10T02:45:11.949Z,18.27
2018-05-10T02:47:38.036Z,15.67
2018-05-10T02:50:04.117Z,14.03
2018-05-10T02:52:30.966Z,14.43
2018-05-10T02:54:57.777Z,13.43
2018-05-10T02:57:23.857Z,11.27
2018-05-10T02:59:49.937Z,12.60
2018-05-10T03:02:16.000Z,14.87
2018-05-10T03:04:42.073Z,14.70
2018-05-10T03:07:08.142Z,12.63
2018-05-10T03:09:34.220Z,14.90
2018-05-10T03:12:00.292Z,14.80
2018-05-10T03:14:27.125Z,11.77
2018-05-10T03:16:53.953Z,12.80
2018-05-10T03:19:20.030Z,13.27
2018-05-10T03:21:46.112Z,14.50
2018-05-10T03:24:12.197Z,12.73
2018-05-10T03:26:39.013Z,15.83
2018-05-10T03:29:05.102Z,13.70
2018-05-10T03:31:31.181Z,12.33
2018-05-10T03:33:57.249Z,13.30
2018-05-10T03:36:23.331Z,11.50
2018-05-10T03:38:49.418Z,14.33
2018-05-10T03:41:16.258Z,17.10
2018-05-10T03:43:43.065Z,12.13
2018-05-10T03:46:09.150Z,12.70
2018-05-10T03:48:35.234Z,12.87
2018-05-10T03:51:01.326Z,13.17
2018-05-10T03:53:27.406Z,11.87
2018-05-10T03:55:54.237Z,12.40
2018-05-10T03:58:20.302Z,14.50
2018-05-10T04:00:46.391Z,12.13
2018-05-10T04:07:00.566Z,14.80
2018-05-10T04:09:45.993Z,15.23
2018-05-10T04:12:12.069Z,13.13
2018-05-10T04:14:38.890Z,16.07
2018-05-10T04:17:04.977Z,11.40
2018-05-10T04:19:31.766Z,11.73
2018-05-10T04:21:57.849Z,13.43
2018-05-10T04:24:23.924Z,12.80
2018-05-10T04:26:50.007Z,15.07
2018-05-10T04:29:16.081Z,13.10
2018-05-10T04:31:42.911Z,12.30
2018-05-10T04:34:08.995Z,9.43
2018-05-10T04:36:35.073Z,11.50
2018-05-10T04:39:01.879Z,13.50
2018-05-10T04:41:27.979Z,11.37
2018-05-10T04:43:54.056Z,13.70
2018-05-10T04:46:20.117Z,12.03
2018-05-10T04:48:46.209Z,13.37
2018-05-10T04:51:12.279Z,16.00
2018-05-10T04:53:38.375Z,12.37
2018-05-10T04:56:05.195Z,10.63
2018-05-10T04:58:31.278Z,15.90
2018-05-10T05:00:57.361Z,12.80
2018-05-10T05:03:24.241Z,10.87
2018-05-10T05:05:50.310Z,12.30
2018-05-10T05:08:16.385Z,9.70
2018-05-10T05:10:42.457Z,12.57
2018-05-10T05:13:08.537Z,11.27
2018-05-10T05:15:34.629Z,13.62
2018-05-10T05:18:01.449Z,10.00
2018-05-10T05:20:27.539Z,10.23
2018-05-10T05:22:53.618Z,10.85
2018-05-10T05:25:20.454Z,10.90
2018-05-10T05:27:46.525Z,12.15
2018-05-10T05:30:12.605Z,9.35
2018-05-10T05:32:38.681Z,14.48
2018-05-10T05:35:04.774Z,11.40
2018-05-10T05:37:31.610Z,8.85
2018-05-10T05:39:58.439Z,11.45
2018-05-10T05:42:24.514Z,12.37
2018-05-10T05:44:50.597Z,10.02
2018-05-10T05:47:17.418Z,9.68
2018-05-10T05:49:43.513Z,14.07
2018-05-10T05:52:09.589Z,9.70
2018-05-10T05:54:35.657Z,13.80
2018-05-10T05:57:01.744Z,8.57
2018-05-10T05:59:28.565Z,12.25
2018-05-10T06:01:54.667Z,8.93
2018-05-10T06:04:21.486Z,9.13
2018-05-10T06:06:47.561Z,10.52
2018-05-10T06:09:13.633Z,9.05
2018-05-10T06:11:39.714Z,12.13
2018-05-10T06:14:05.799Z,9.93
2018-05-10T06:16:31.885Z,10.85
2018-05-10T06:18:58.703Z,10.63
2018-05-10T06:21:24.788Z,9.05
2018-05-10T06:23:50.869Z,9.48
2018-05-10T06:26:19.048Z,13.98
2018-05-10T06:28:45.870Z,13.55
2018-05-10T06:31:11.941Z,9.60
2018-05-10T06:33:38.017Z,7.20
2018-05-10T06:36:04.094Z,10.05
2018-05-10T06:38:30.199Z,9.25
2018-05-10T06:40:57.012Z,10.13
2018-05-10T06:43:23.090Z,10.85
2018-05-10T06:45:49.173Z,12.43
2018-05-10T06:48:15.255Z,9.35
2018-05-10T06:50:41.395Z,13.90
2018-05-10T06:53:08.189Z,14.57
2018-05-10T06:55:35.031Z,12.63
2018-05-10T06:58:01.881Z,19.98
2018-05-10T07:09:58.246Z,10.13
2018-05-10T07:12:23.899Z,10.40
2018-05-10T07:14:49.993Z,10.20
2018-05-10T07:17:16.091Z,10.63
2018-05-10T07:19:42.922Z,9.75
2018-05-10T07:22:09.864Z,11.52
2018-05-10T07:24:35.966Z,8.93
2018-05-10T07:27:02.057Z,8.73
2018-05-10T07:29:28.153Z,13.68
2018-05-10T07:31:54.974Z,10.20
2018-05-10T07:34:21.065Z,10.55
2018-05-10T07:36:47.908Z,14.73
2018-05-10T07:39:14.755Z,14.02
2018-05-10T07:41:40.870Z,12.02
2018-05-10T07:44:06.949Z,10.30
2018-05-10T07:46:33.051Z,12.75
2018-05-10T07:48:59.137Z,9.85
2018-05-10T07:51:25.229Z,13.73
2018-05-10T07:53:51.317Z,13.15
2018-05-10T07:56:18.701Z,14.43
2018-05-10T07:58:44.782Z,10.02
2018-05-10T08:01:12.248Z,9.90
2018-05-10T08:03:39.066Z,10.20
2018-05-10T08:06:05.150Z,17.62
2018-05-10T08:08:31.213Z,8.85
2018-05-10T08:10:57.307Z,11.80
2018-05-10T08:13:23.386Z,9.35
2018-05-10T08:15:50.211Z,11.82
2018-05-10T08:18:16.293Z,7.93
2018-05-10T08:20:42.367Z,13.20
2018-05-10T08:23:08.445Z,11.35
2018-05-10T08:25:34.523Z,11.15
2018-05-10T08:28:00.609Z,12.40
2018-05-10T08:30:26.681Z,13.80
2018-05-10T08:36:04.949Z,12.88
2018-05-10T08:38:31.683Z,12.43
2018-05-10T08:40:57.790Z,11.77
2018-05-10T08:43:24.618Z,11.30
2018-05-10T08:45:51.442Z,16.33
2018-05-10T08:48:17.542Z,10.40
2018-05-10T08:50:43.625Z,14.52
2018-05-10T08:53:10.461Z,15.00
2018-05-10T08:55:37.303Z,11.65
2018-05-10T08:58:04.130Z,10.85
2018-05-10T09:00:30.228Z,12.93
2018-05-10T09:02:56.325Z,14.93
2018-05-10T09:05:22.417Z,11.65
2018-05-10T09:07:59.458Z,12.85
2018-05-10T09:10:47.084Z,19.90
2018-05-10T09:22:14.162Z,15.27
2018-05-10T09:24:40.264Z,11.07
2018-05-10T09:27:06.366Z,15.02
2018-05-10T09:29:32.451Z,14.45
2018-05-10T09:31:58.540Z,13.85
2018-05-10T09:34:24.620Z,17.55
2018-05-10T09:36:50.714Z,13.35
2018-05-10T09:39:16.882Z,14.68
2018-05-10T09:41:43.665Z,14.07
2018-05-10T09:44:10.502Z,16.27
2018-05-10T09:46:36.597Z,15.00
2018-05-10T09:49:02.693Z,14.98
2018-05-10T09:51:28.776Z,18.70
2018-05-10T09:53:54.862Z,15.80
2018-05-10T09:56:20.946Z,11.90
2018-05-10T09:58:47.772Z,12.82
2018-05-10T10:01:13.853Z,10.20
2018-05-10T10:03:39.930Z,15.45
2018-05-10T10:06:06.847Z,15.43
2018-05-10T10:08:32.849Z,11.30
2018-05-10T10:10:58.926Z,10.35
2018-05-10T10:13:25.758Z,13.07
2018-05-10T10:15:51.829Z,15.13
2018-05-10T10:18:17.930Z,13.88
2018-05-10T10:20:44.768Z,17.80
2018-05-10T10:23:11.609Z,10.40
2018-05-10T10:25:39.482Z,11.90
2018-05-10T10:28:06.305Z,14.32
2018-05-10T10:30:32.381Z,10.93
2018-05-10T10:32:58.460Z,15.10
2018-05-10T10:35:24.534Z,12.13
2018-05-10T10:37:50.615Z,9.52
2018-05-10T10:40:17.746Z,11.02
2018-05-10T10:42:43.841Z,15.68
2018-05-10T10:45:09.908Z,10.50
2018-05-10T10:47:35.987Z,11.73
2018-05-10T10:50:02.071Z,9.43
2018-05-10T10:52:28.919Z,10.57
2018-05-10T10:54:55.769Z,13.13
2018-05-10T10:57:21.866Z,8.98
2018-05-10T10:59:47.965Z,13.25
2018-05-10T11:02:14.057Z,12.05
2018-05-10T11:04:40.162Z,10.48
2018-05-10T11:07:06.980Z,11.73
2018-05-10T11:09:33.073Z,10.13
2018-05-10T11:11:59.158Z,8.98
2018-05-10T11:14:25.996Z,8.38
2018-05-10T11:16:52.842Z,10.25
2018-05-10T11:19:19.690Z,10.77
2018-05-10T11:21:46.529Z,13.43
2018-05-10T11:24:13.395Z,7.82
2018-05-10T11:26:39.496Z,9.00
2018-05-10T11:29:08.492Z,8.38
2018-05-10T11:31:35.333Z,7.15
2018-05-10T11:34:02.167Z,12.75
2018-05-10T11:36:28.265Z,5.95
2018-05-10T11:38:54.357Z,9.65
2018-05-10T11:41:20.470Z,12.35
2018-05-10T11:43:46.566Z,8.95
2018-05-10T11:46:13.909Z,9.25
2018-05-10T11:48:40.015Z,8.27
2018-05-10T11:51:06.133Z,8.10
2018-05-10T11:53:32.209Z,10.50
2018-05-10T11:55:59.038Z,9.48
2018-05-10T11:58:25.109Z,10.02
2018-05-10T12:00:51.208Z,9.95
2018-05-10T12:03:18.021Z,6.37
2018-05-10T12:05:44.094Z,7.10
2018-05-10T12:08:10.183Z,8.48
2018-05-10T12:10:36.257Z,9.55
2018-05-10T12:13:02.336Z,8.90
2018-05-10T12:15:28.400Z,8.65
2018-05-10T12:17:54.477Z,8.20
2018-05-10T12:20:20.563Z,7.50
2018-05-10T12:22:46.660Z,9.40
2018-05-10T12:25:13.473Z,8.80
2018-05-10T12:27:39.549Z,12.68
2018-05-10T12:30:05.655Z,8.43
2018-05-10T12:32:31.769Z,9.27
2018-05-10T12:34:58.614Z,10.48
2018-05-10T12:37:25.449Z,10.40
2018-05-10T12:39:52.290Z,6.55
2018-05-10T12:42:18.385Z,10.43
2018-05-10T12:44:44.482Z,8.75
2018-05-10T12:47:10.579Z,14.82
2018-05-10T12:49:37.426Z,12.07
2018-05-10T12:52:04.258Z,8.23
2018-05-10T12:54:31.091Z,8.18
2018-05-10T12:56:57.165Z,8.20
2018-05-10T12:59:23.259Z,7.32
2018-05-10T13:01:50.082Z,9.30
2018-05-10T13:04:16.166Z,11.27
2018-05-10T13:06:42.263Z,12.07
2018-05-10T13:09:08.358Z,8.35
2018-05-10T13:11:34.440Z,8.80
2018-05-10T13:14:00.521Z,8.02
2018-05-10T13:16:27.348Z,8.07
2018-05-10T13:18:53.441Z,12.37
2018-05-10T13:21:19.517Z,9.38
2018-05-10T13:23:46.343Z,10.10
2018-05-10T13:26:12.423Z,9.75
2018-05-10T13:28:38.497Z,12.35
2018-05-10T13:31:04.594Z,11.90
2018-05-10T13:33:30.665Z,12.02
2018-05-10T13:35:57.485Z,7.62
2018-05-10T13:38:23.622Z,12.88
2018-05-10T13:40:49.655Z,9.80
2018-05-10T13:43:16.472Z,15.43
2018-05-10T13:45:50.771Z,10.15
2018-05-10T13:51:36.608Z,9.88
2018-05-10T13:54:02.684Z,10.20
2018-05-10T13:56:28.773Z,9.98
2018-05-10T13:58:55.649Z,10.80
2018-05-10T14:01:21.682Z,12.23
2018-05-10T14:03:47.760Z,12.32
2018-05-10T14:06:13.841Z,13.45
2018-05-10T14:08:39.920Z,11.48
2018-05-10T14:11:06.843Z,10.95
2018-05-10T14:13:33.572Z,13.40
2018-05-10T14:15:59.655Z,12.73
2018-05-10T14:18:25.758Z,8.75
2018-05-10T14:20:52.583Z,13.43
2018-05-10T14:23:18.665Z,10.35
2018-05-10T14:25:44.742Z,14.27
2018-05-10T14:28:10.820Z,12.93
2018-05-10T14:30:36.897Z,12.55
2018-05-10T14:33:03.752Z,9.98
2018-05-10T14:35:30.555Z,11.35
2018-05-10T14:37:56.659Z,11.55
2018-05-10T14:40:38.072Z,10.02
2018-05-10T14:43:04.153Z,13.02
2018-05-10T14:45:30.229Z,12.15
2018-05-10T14:47:56.308Z,13.00
2018-05-10T14:50:22.395Z,10.98
2018-05-10T14:52:49.248Z,10.57
2018-05-10T14:55:23.907Z,12.93
2018-05-10T14:57:50.005Z,9.85
2018-05-10T15:00:16.840Z,14.98
2018-05-10T15:02:44.519Z,11.05
2018-05-10T15:05:10.629Z,12.65
2018-05-10T15:07:38.114Z,10.00
2018-05-10T15:10:04.209Z,27.85
2018-05-10T15:12:31.047Z,11.98
2018-05-10T15:14:57.899Z,10.73
2018-05-10T15:17:24.739Z,7.00
2018-05-10T15:19:51.577Z,7.40
2018-05-10T15:22:18.408Z,8.88
2018-05-10T15:24:44.515Z,7.10
2018-05-10T15:27:10.618Z,8.95
2018-05-10T15:29:36.723Z,10.48
2018-05-10T15:32:02.830Z,9.48
2018-05-10T15:34:29.669Z,9.38
2018-05-10T15:36:56.511Z,9.65
2018-05-10T15:39:23.342Z,7.93
2018-05-10T15:41:49.447Z,8.00
2018-05-10T15:44:15.543Z,6.45
2018-05-10T15:46:41.647Z,8.88
2018-05-10T15:49:07.735Z,7.45
2018-05-10T15:51:40.095Z,6.70
2018-05-10T15:54:06.189Z,6.50
2018-05-10T15:56:32.280Z,8.75
2018-05-10T15:58:59.110Z,9.73
2018-05-10T16:01:25.197Z,10.48
2018-05-10T16:03:51.289Z,6.10
2018-05-10T16:06:18.121Z,9.45
2018-05-10T16:08:44.969Z,10.27
2018-05-10T16:11:11.798Z,7.37
2018-05-10T16:13:37.897Z,6.90
2018-05-10T16:16:03.995Z,7.85
2018-05-10T16:18:52.955Z,5.18
2018-05-10T16:21:19.038Z,8.60
2018-05-10T16:23:48.874Z,8.40
2018-05-10T16:26:14.965Z,5.12
2018-05-10T16:28:41.063Z,5.68
2018-05-10T16:31:07.145Z,4.80
2018-05-10T16:33:34.034Z,6.28
2018-05-10T16:36:00.089Z,5.40
2018-05-10T16:38:26.181Z,5.90
2018-05-10T16:40:52.280Z,4.97
2018-05-10T16:43:18.377Z,5.47
2018-05-10T16:45:45.220Z,6.35
2018-05-10T16:48:12.050Z,6.70
2018-05-10T16:50:38.905Z,6.78
2018-05-10T16:53:05.742Z,9.63
2018-05-10T16:55:31.853Z,7.53
2018-05-10T16:57:57.944Z,8.18
2018-05-10T17:00:24.034Z,8.32
2018-05-10T17:02:50.869Z,6.68
2018-05-10T17:05:17.712Z,5.50
2018-05-10T17:07:44.542Z,5.07
2018-05-10T17:10:10.641Z,9.32
2018-05-10T17:12:36.729Z,4.75
2018-05-10T17:15:02.829Z,8.55
2018-05-10T17:17:29.661Z,9.48
2018-05-10T17:19:55.777Z,7.72
2018-05-10T17:22:21.882Z,6.32
2018-05-10T17:24:47.985Z,6.62
2018-05-10T17:27:14.078Z,6.40
2018-05-10T17:29:40.919Z,4.97
2018-05-10T17:32:07.765Z,5.35
2018-05-10T17:34:34.631Z,9.48
2018-05-10T17:37:02.386Z,7.00
2018-05-10T17:39:29.225Z,7.60
2018-05-10T17:41:56.058Z,6.53
2018-05-10T17:44:22.922Z,7.37
2018-05-10T17:46:49.009Z,5.15
2018-05-10T17:49:15.098Z,4.87
2018-05-10T17:51:41.201Z,6.80
2018-05-10T17:54:07.285Z,8.23
2018-05-10T17:56:33.369Z,6.22
2018-05-10T17:58:59.450Z,7.78
2018-05-10T18:01:25.527Z,8.05
2018-05-10T18:03:51.607Z,6.47
2018-05-10T18:06:18.429Z,7.07
2018-05-10T18:08:44.503Z,6.75
2018-05-10T18:11:10.576Z,8.90
2018-05-10T18:13:38.228Z,7.28
2018-05-10T18:16:04.994Z,7.25
2018-05-10T18:18:31.069Z,5.65
2018-05-10T18:20:57.164Z,7.00
2018-05-10T18:23:24.087Z,5.75
2018-05-10T18:25:50.823Z,6.35
2018-05-10T18:28:16.898Z,6.20
2018-05-10T18:30:42.985Z,9.77
2018-05-10T18:33:09.061Z,7.00
2018-05-10T18:35:35.146Z,6.10
2018-05-10T18:38:01.969Z,6.80
2018-05-10T18:40:28.042Z,6.47
2018-05-10T18:42:54.129Z,6.20
2018-05-10T18:45:20.210Z,7.20
2018-05-10T18:47:46.293Z,8.80
2018-05-10T18:50:13.112Z,9.65
2018-05-10T18:52:39.198Z,9.30
2018-05-10T18:55:05.279Z,10.25
2018-05-10T18:57:32.114Z,11.05
2018-05-10T18:59:58.177Z,8.17
2018-05-10T19:02:24.262Z,7.27
2018-05-10T19:04:50.333Z,8.75
2018-05-10T19:07:16.489Z,11.63
2018-05-10T19:09:43.253Z,8.05
2018-05-10T19:12:09.344Z,7.12
2018-05-10T19:14:35.417Z,8.15
2018-05-10T19:17:02.246Z,8.98
2018-05-10T19:19:28.322Z,7.75
2018-05-10T19:21:54.410Z,11.20
2018-05-10T19:24:21.239Z,9.77
2018-05-10T19:26:47.909Z,9.73
2018-05-10T19:29:13.989Z,9.70
2018-05-10T19:31:40.111Z,13.83
2018-05-10T19:34:06.185Z,17.95
2018-05-10T19:36:32.253Z,19.48
2018-05-10T19:38:58.342Z,18.15
2018-05-10T19:41:24.418Z,18.45
2018-05-10T19:43:50.517Z,24.60
2018-05-10T19:46:16.590Z,22.85
2018-05-10T19:48:42.672Z,24.40
2018-05-10T19:51:08.745Z,22.45
2018-05-10T19:53:35.582Z,23.87
2018-05-10T19:56:03.409Z,23.53
2018-05-10T19:58:29.494Z,23.20
2018-05-10T20:00:56.313Z,24.10
2018-05-10T20:03:22.389Z,24.98
2018-05-10T20:05:48.477Z,23.42
2018-05-10T20:08:15.311Z,22.70
2018-05-10T20:10:42.075Z,23.53
2018-05-10T20:13:08.172Z,22.25
2018-05-10T20:15:34.999Z,20.42
2018-05-10T20:18:01.086Z,23.00
2018-05-10T20:20:27.173Z,21.08
2018-05-10T20:22:53.255Z,21.10
2018-05-10T20:25:19.329Z,20.93
2018-05-10T20:27:46.154Z,22.77
2018-05-10T20:30:12.252Z,23.20
2018-05-10T20:32:38.333Z,21.90
2018-05-10T20:35:05.157Z,22.03
2018-05-10T20:37:31.222Z,22.70
2018-05-10T20:39:57.301Z,22.63
2018-05-10T20:42:23.383Z,24.00
2018-05-10T20:44:49.579Z,25.37
2018-05-10T20:47:15.558Z,24.90
2018-05-10T20:49:41.665Z,26.97
2018-05-10T20:52:07.750Z,27.93
2018-05-10T20:54:48.916Z,28.53
2018-05-10T20:57:14.992Z,30.43
2018-05-10T21:05:54.727Z,32.80
2018-05-10T21:08:31.332Z,32.07
2018-05-10T21:11:26.683Z,32.77
2018-05-10T21:13:52.756Z,31.93
2018-05-10T21:16:23.715Z,34.77
2018-05-10T21:18:55.144Z,33.27
2018-05-10T21:21:21.252Z,33.80
2018-05-10T21:23:47.328Z,34.43
2018-05-10T21:26:19.057Z,31.50
2018-05-10T21:28:45.930Z,34.03
2018-05-10T21:31:11.997Z,32.87
2018-05-10T21:33:38.080Z,34.03
2018-05-10T21:36:04.145Z,33.93
2018-05-10T21:38:30.225Z,33.47
2018-05-10T21:40:58.297Z,34.53
2018-05-10T21:43:41.878Z,34.43
2018-05-10T21:46:07.950Z,34.00
2018-05-10T21:48:34.034Z,34.83
2018-05-10T21:54:18.611Z,34.93
2018-05-10T21:56:44.700Z,34.47
2018-05-10T21:59:10.793Z,30.83
2018-05-10T22:04:42.819Z,29.43
2018-05-10T22:10:13.101Z,27.10
2018-05-10T22:12:39.198Z,27.70
2018-05-10T22:30:12.754Z,24.83
2018-05-10T22:32:38.842Z,26.30
2018-05-10T22:35:05.009Z,28.33
2018-05-10T22:37:31.639Z,29.23
2018-05-10T22:46:10.452Z,27.23
2018-05-10T22:48:36.555Z,27.20
2018-05-10T22:51:02.644Z,28.77
2018-05-10T22:53:46.975Z,27.40
2018-05-10T22:56:42.470Z,26.63
2018-05-10T22:59:08.536Z,27.33
2018-05-10T23:05:01.535Z,28.73
2018-05-10T23:07:27.626Z,32.57
2018-05-10T23:09:53.716Z,31.33
2018-05-10T23:12:19.814Z,27.67
2018-05-10T23:14:45.905Z,27.93
2018-05-10T23:20:42.645Z,28.30
2018-05-10T23:23:08.782Z,26.33
2018-05-10T23:28:56.477Z,26.33
2018-05-10T23:31:22.556Z,26.00
2018-05-10T23:33:58.993Z,25.17
2018-05-10T23:36:25.073Z,25.70
2018-05-10T23:38:51.912Z,24.40
2018-05-10T23:41:18.007Z,24.20
2018-05-10T23:43:44.101Z,24.27
2018-05-10T23:46:10.205Z,23.43
2018-05-10T23:51:38.089Z,25.20
2018-05-10T23:54:04.928Z,22.83
2018-05-10T23:56:38.586Z,24.60
2018-05-10T23:59:04.679Z,23.47
